createdAt,value
2023-03-07T00:02:28.097Z,7.10
2023-03-07T00:06:11.527Z,7.10
2023-03-07T00:09:53.297Z,7.10
2023-03-07T00:13:37.208Z,7.00
2023-03-07T00:17:18.935Z,7.00
2023-03-07T00:21:03.592Z,7.00
2023-03-07T00:24:47.578Z,6.90
2023-03-07T00:28:29.585Z,6.90
2023-03-07T00:32:11.414Z,6.90
2023-03-07T00:35:58.281Z,6.90
2023-03-07T00:39:40.076Z,7.00
2023-03-07T00:43:21.861Z,7.00
2023-03-07T00:47:03.626Z,7.00
2023-03-07T00:50:45.980Z,7.00
2023-03-07T00:54:27.714Z,7.00
2023-03-07T00:58:09.578Z,7.00
2023-03-07T01:01:52.305Z,7.00
2023-03-07T01:05:39.303Z,7.00
2023-03-07T01:09:21.220Z,7.00
2023-03-07T01:13:03.335Z,7.00
2023-03-07T01:16:45.248Z,7.00
2023-03-07T01:20:27.233Z,7.00
2023-03-07T01:24:13.164Z,7.00
2023-03-07T01:27:56.217Z,7.00
2023-03-07T01:31:38.147Z,7.00
2023-03-07T01:35:19.937Z,7.00
2023-03-07T01:39:06.561Z,7.00
2023-03-07T01:42:48.575Z,7.10
2023-03-07T01:46:42.501Z,7.00
2023-03-07T01:50:24.624Z,7.00
2023-03-07T01:54:09.664Z,7.10
2023-03-07T01:57:53.214Z,7.00
2023-03-07T02:01:35.943Z,7.10
2023-03-07T02:05:28.057Z,7.10
2023-03-07T02:09:15.894Z,7.10
2023-03-07T02:12:57.814Z,7.10
2023-03-07T02:16:40.010Z,7.00
2023-03-07T02:20:29.484Z,7.00
2023-03-07T02:24:20.221Z,7.10
2023-03-07T02:28:04.485Z,7.10
2023-03-07T02:31:47.143Z,7.00
2023-03-07T02:35:29.003Z,7.00
2023-03-07T02:39:11.006Z,7.00
2023-03-07T02:42:55.722Z,7.00
2023-03-07T02:46:37.528Z,7.00
2023-03-07T02:50:19.476Z,6.90
2023-03-07T02:54:01.616Z,6.90
2023-03-07T02:57:43.379Z,6.90
2023-03-07T03:01:25.258Z,6.90
2023-03-07T03:05:07.501Z,6.90
2023-03-07T03:08:49.216Z,6.90
2023-03-07T03:12:31.002Z,6.90
2023-03-07T03:16:12.808Z,6.90
2023-03-07T03:19:54.741Z,6.90
2023-03-07T03:23:37.505Z,6.80
2023-03-07T03:27:19.249Z,6.90
2023-03-07T03:31:02.906Z,6.90
2023-03-07T03:34:44.639Z,6.90
2023-03-07T03:38:27.317Z,6.80
2023-03-07T03:42:09.120Z,6.70
2023-03-07T03:45:57.777Z,6.70
2023-03-07T03:49:39.532Z,6.50
2023-03-07T03:53:21.274Z,6.40
2023-03-07T03:57:03.176Z,6.30
2023-03-07T04:00:44.997Z,6.20
2023-03-07T04:04:26.720Z,6.10
2023-03-07T04:08:08.432Z,6.10
2023-03-07T04:11:50.238Z,6.00
2023-03-07T04:15:32.064Z,5.90
2023-03-07T04:19:13.929Z,5.80
2023-03-07T04:22:55.670Z,5.70
2023-03-07T04:26:37.513Z,5.70
2023-03-07T04:30:20.005Z,5.70
2023-03-07T04:34:01.848Z,5.60
2023-03-07T04:37:43.883Z,5.50
2023-03-07T04:41:26.724Z,5.50
2023-03-07T04:45:09.159Z,5.50
2023-03-07T04:48:50.978Z,5.40
2023-03-07T04:52:33.393Z,5.40
2023-03-07T04:56:16.254Z,5.40
2023-03-07T04:59:58.024Z,5.30
2023-03-07T05:03:39.773Z,5.30
2023-03-07T05:07:21.514Z,5.30
2023-03-07T05:11:03.324Z,5.30
2023-03-07T05:14:45.127Z,5.30
2023-03-07T05:18:28.000Z,5.30
2023-03-07T05:22:09.835Z,5.30
2023-03-07T05:25:51.832Z,5.40
2023-03-07T05:29:33.548Z,5.40
2023-03-07T05:33:15.769Z,5.40
2023-03-07T05:36:58.362Z,5.30
2023-03-07T05:40:40.935Z,5.30
2023-03-07T05:44:22.666Z,5.30
2023-03-07T05:48:04.484Z,5.30
2023-03-07T05:51:46.232Z,5.30
2023-03-07T05:55:28.104Z,5.30
2023-03-07T05:59:12.973Z,5.30
2023-03-07T06:02:55.014Z,5.30
2023-03-07T06:06:36.925Z,5.30
2023-03-07T06:10:18.846Z,5.30
2023-03-07T06:14:00.768Z,5.30
2023-03-07T06:17:42.970Z,5.30
2023-03-07T06:21:24.778Z,5.30
2023-03-07T06:25:08.593Z,5.30
2023-03-07T06:28:50.590Z,5.30
2023-03-07T06:32:33.118Z,5.30
2023-03-07T06:36:17.377Z,5.30
2023-03-07T06:39:59.197Z,5.30
2023-03-07T06:43:40.972Z,5.20
2023-03-07T06:47:23.112Z,5.20
2023-03-07T06:51:09.394Z,5.20
2023-03-07T06:54:51.416Z,5.20
2023-03-07T06:58:33.195Z,5.20
2023-03-07T07:02:15.459Z,5.20
2023-03-07T07:05:57.273Z,5.10
2023-03-07T07:09:39.196Z,5.20
2023-03-07T07:13:20.946Z,5.20
2023-03-07T07:17:03.352Z,5.20
2023-03-07T07:20:45.211Z,5.20
2023-03-07T07:24:27.580Z,5.20
2023-03-07T07:28:09.330Z,5.20
2023-03-07T07:31:51.243Z,5.20
2023-03-07T07:35:33.023Z,5.20
2023-03-07T07:39:15.321Z,5.20
2023-03-07T07:42:57.052Z,5.20
2023-03-07T07:46:38.836Z,5.30
2023-03-07T07:50:22.246Z,5.30
2023-03-07T07:54:04.005Z,5.30
2023-03-07T07:57:45.933Z,5.30
2023-03-07T08:01:27.726Z,5.30
2023-03-07T08:05:12.703Z,5.30
2023-03-07T08:08:55.491Z,5.30
2023-03-07T08:12:37.579Z,5.30
2023-03-07T08:16:22.521Z,5.30
2023-03-07T08:20:09.230Z,5.40
2023-03-07T08:23:51.241Z,5.40
2023-03-07T08:27:33.687Z,5.50
2023-03-07T08:31:18.721Z,5.50
2023-03-07T08:35:00.520Z,5.60
2023-03-07T08:38:43.047Z,5.60
2023-03-07T08:42:24.959Z,5.60
2023-03-07T08:46:07.196Z,5.70
2023-03-07T08:49:49.023Z,5.70
2023-03-07T08:53:30.785Z,5.80
2023-03-07T08:57:12.584Z,5.80
2023-03-07T09:00:54.359Z,5.90
2023-03-07T09:04:36.175Z,6.00
2023-03-07T09:08:18.929Z,6.00
2023-03-07T09:12:00.736Z,6.00
2023-03-07T09:15:42.543Z,6.10
2023-03-07T09:19:28.794Z,6.20
2023-03-07T09:23:10.898Z,6.20
2023-03-07T09:26:53.002Z,6.30
2023-03-07T09:30:34.791Z,6.30
2023-03-07T09:34:16.657Z,6.30
2023-03-07T09:37:58.457Z,6.40
2023-03-07T09:42:01.472Z,6.50
2023-03-07T09:46:07.450Z,6.60
2023-03-07T09:49:54.151Z,6.60
2023-03-07T09:54:17.318Z,6.70
2023-03-07T09:58:06.548Z,6.70
2023-03-07T10:02:20.318Z,6.80
2023-03-07T10:06:27.019Z,6.80
2023-03-07T10:10:18.744Z,6.80
2023-03-07T10:14:24.299Z,6.90
2023-03-07T10:18:21.293Z,7.00
2023-03-07T10:22:24.317Z,7.10
2023-03-07T10:26:12.773Z,7.20
2023-03-07T10:29:56.426Z,7.30
2023-03-07T10:33:42.898Z,7.50
2023-03-07T10:37:36.586Z,7.70
2023-03-07T10:41:21.542Z,7.90
2023-03-07T10:45:03.602Z,8.00
2023-03-07T10:48:52.683Z,8.10
2023-03-07T10:52:40.548Z,8.10
2023-03-07T10:56:22.567Z,8.20
2023-03-07T11:00:16.312Z,8.20
2023-03-07T11:04:05.068Z,8.20
2023-03-07T11:07:47.051Z,8.10
2023-03-07T11:11:32.298Z,8.10
2023-03-07T11:15:24.202Z,8.00
2023-03-07T11:19:39.664Z,8.00
2023-03-07T11:23:32.888Z,8.00
2023-03-07T11:27:30.394Z,7.90
2023-03-07T11:31:40.544Z,7.90
2023-03-07T11:35:44.325Z,8.00
2023-03-07T11:39:42.854Z,8.00
2023-03-07T11:43:33.138Z,8.00
2023-03-07T11:47:34.153Z,8.00
2023-03-07T11:51:29.677Z,8.00
2023-03-07T11:55:26.535Z,8.00
2023-03-07T11:59:22.214Z,8.00
2023-03-07T12:03:27.059Z,8.00
2023-03-07T12:07:43.553Z,8.00
2023-03-07T12:11:52.583Z,8.00
2023-03-07T12:15:40.295Z,8.20
2023-03-07T12:19:34.632Z,8.20
2023-03-07T12:23:39.132Z,8.40
2023-03-07T12:27:30.890Z,8.60
2023-03-07T12:31:26.512Z,8.80
2023-03-07T12:35:32.681Z,8.90
2023-03-07T12:39:27.424Z,9.00
2023-03-07T12:43:37.730Z,9.20
2023-03-07T12:47:36.894Z,9.30
2023-03-07T12:51:21.443Z,9.30
2023-03-07T12:55:31.524Z,9.30
2023-03-07T12:59:15.482Z,9.30
2023-03-07T13:03:01.905Z,9.50
2023-03-07T13:06:45.014Z,9.60
2023-03-07T13:10:27.388Z,9.80
2023-03-07T13:14:30.685Z,9.90
2023-03-07T13:18:30.908Z,10.00
2023-03-07T13:22:15.426Z,10.10
2023-03-07T13:25:59.924Z,10.30
2023-03-07T13:30:13.440Z,10.60
2023-03-07T13:33:55.268Z,11.40
2023-03-07T13:37:52.134Z,12.00
2023-03-07T13:41:49.490Z,12.10
2023-03-07T13:45:40.455Z,11.80
2023-03-07T13:49:48.727Z,11.70
2023-03-07T13:53:36.100Z,11.50
2023-03-07T13:57:20.382Z,11.40
2023-03-07T14:01:16.142Z,11.50
2023-03-07T14:05:03.052Z,11.50
2023-03-07T14:08:45.897Z,11.40
2023-03-07T14:12:31.212Z,11.20
2023-03-07T14:16:17.359Z,11.00
2023-03-07T14:20:21.119Z,10.70
2023-03-07T14:24:02.893Z,10.40
2023-03-07T14:27:54.519Z,10.20
2023-03-07T14:31:41.983Z,10.00
2023-03-07T14:35:40.601Z,9.80
2023-03-07T14:39:23.810Z,9.70
2023-03-07T14:43:17.480Z,9.60
2023-03-07T14:47:15.825Z,9.50
2023-03-07T14:51:08.606Z,9.40
2023-03-07T14:54:53.645Z,9.40
2023-03-07T14:58:47.046Z,9.30
2023-03-07T15:02:28.830Z,9.30
2023-03-07T15:06:15.271Z,9.30
2023-03-07T15:09:57.085Z,9.40
2023-03-07T15:13:46.403Z,9.20
2023-03-07T15:17:43.654Z,9.20
2023-03-07T15:21:30.256Z,9.20
2023-03-07T15:25:25.919Z,9.20
2023-03-07T15:29:09.115Z,9.10
2023-03-07T15:33:04.837Z,9.00
2023-03-07T15:36:46.597Z,9.00
2023-03-07T15:40:35.872Z,9.00
2023-03-07T15:44:19.544Z,9.00
2023-03-07T15:48:29.656Z,9.00
2023-03-07T15:52:31.602Z,9.00
2023-03-07T15:56:30.408Z,9.10
2023-03-07T16:00:20.759Z,9.00
2023-03-07T16:04:04.348Z,9.00
2023-03-07T16:07:47.264Z,9.00
2023-03-07T16:11:29.068Z,8.90
2023-03-07T16:15:14.790Z,8.90
2023-03-07T16:18:58.219Z,8.90
2023-03-07T16:22:39.987Z,8.90
2023-03-07T16:26:23.842Z,9.00
2023-03-07T16:30:32.674Z,9.00
2023-03-07T16:34:22.802Z,9.10
2023-03-07T16:38:04.593Z,9.20
2023-03-07T16:41:48.632Z,9.20
2023-03-07T16:45:31.894Z,9.20
2023-03-07T16:49:18.053Z,9.20
2023-03-07T16:53:00.371Z,9.10
2023-03-07T16:56:45.069Z,9.00
2023-03-07T17:00:28.344Z,9.00
2023-03-07T17:04:10.168Z,8.90
2023-03-07T17:07:56.566Z,8.90
2023-03-07T17:11:41.064Z,8.80
2023-03-07T17:15:30.294Z,8.60
2023-03-07T17:19:28.063Z,8.40
2023-03-07T17:23:09.906Z,8.40
2023-03-07T17:26:53.527Z,8.30
2023-03-07T17:30:35.375Z,8.10
2023-03-07T17:34:31.770Z,8.00
2023-03-07T17:38:13.612Z,7.80
2023-03-07T17:41:56.115Z,7.70
2023-03-07T17:45:39.128Z,7.50
2023-03-07T17:49:22.301Z,7.40
2023-03-07T17:53:04.070Z,7.20
2023-03-07T17:56:45.815Z,7.20
2023-03-07T18:00:27.743Z,7.00
2023-03-07T18:04:09.555Z,6.90
2023-03-07T18:07:53.514Z,6.80
2023-03-07T18:11:35.704Z,6.60
2023-03-07T18:15:19.927Z,6.60
2023-03-07T18:19:04.077Z,6.40
2023-03-07T18:22:46.732Z,6.40
2023-03-07T18:26:28.659Z,6.20
2023-03-07T18:30:11.979Z,6.10
2023-03-07T18:33:54.186Z,6.10
2023-03-07T18:37:36.548Z,5.90
2023-03-07T18:41:23.656Z,5.90
2023-03-07T18:45:06.190Z,5.80
2023-03-07T18:48:48.890Z,5.70
2023-03-07T18:52:30.655Z,5.50
2023-03-07T18:56:15.227Z,5.50
2023-03-07T18:59:56.997Z,5.40
2023-03-07T19:03:39.336Z,5.40
2023-03-07T19:07:23.295Z,5.30
2023-03-07T19:11:07.597Z,5.30
2023-03-07T19:14:51.026Z,5.20
2023-03-07T19:18:34.946Z,5.20
2023-03-07T19:22:22.338Z,5.20
2023-03-07T19:26:08.145Z,5.20
2023-03-07T19:29:51.154Z,5.20
2023-03-07T19:33:33.934Z,5.10
2023-03-07T19:37:17.744Z,5.10
2023-03-07T19:41:00.246Z,5.10
2023-03-07T19:44:42.063Z,5.00
2023-03-07T19:48:25.010Z,4.90
2023-03-07T19:52:06.858Z,4.90
2023-03-07T19:55:48.700Z,4.80
2023-03-07T19:59:30.830Z,4.80
2023-03-07T20:03:18.869Z,4.80
2023-03-07T20:07:02.009Z,4.70
2023-03-07T20:10:45.972Z,4.70
2023-03-07T20:14:29.158Z,4.70
2023-03-07T20:18:11.576Z,4.70
2023-03-07T20:21:55.006Z,4.70
2023-03-07T20:25:38.168Z,4.60
2023-03-07T20:29:20.981Z,4.60
2023-03-07T20:33:02.817Z,4.60
2023-03-07T20:36:45.709Z,4.50
2023-03-07T20:40:27.530Z,4.40
2023-03-07T20:44:13.001Z,4.40
2023-03-07T20:47:54.726Z,4.30
2023-03-07T20:51:36.677Z,4.30
2023-03-07T20:55:18.951Z,4.20
2023-03-07T20:59:01.443Z,4.20
2023-03-07T21:02:43.226Z,4.10
2023-03-07T21:06:25.210Z,4.20
2023-03-07T21:10:07.412Z,4.20
2023-03-07T21:13:50.039Z,4.10
2023-03-07T21:17:31.778Z,4.10
2023-03-07T21:21:19.059Z,4.10
2023-03-07T21:25:01.669Z,4.10
2023-03-07T21:28:45.948Z,4.20
2023-03-07T21:32:28.126Z,4.10
2023-03-07T21:36:13.881Z,4.10
2023-03-07T21:39:57.049Z,4.20
2023-03-07T21:43:39.723Z,4.10
2023-03-07T21:47:22.032Z,4.10
2023-03-07T21:51:05.513Z,4.10
2023-03-07T21:54:47.450Z,4.10
2023-03-07T21:58:32.189Z,4.20
2023-03-07T22:02:14.536Z,4.20
2023-03-07T22:05:57.396Z,4.20
2023-03-07T22:09:39.384Z,4.20
2023-03-07T22:13:21.166Z,4.20
2023-03-07T22:17:02.921Z,4.20
2023-03-07T22:20:44.705Z,4.20
2023-03-07T22:24:26.476Z,4.10
2023-03-07T22:28:08.287Z,4.20
2023-03-07T22:31:50.074Z,4.20
2023-03-07T22:35:31.929Z,4.20
2023-03-07T22:39:13.675Z,4.20
2023-03-07T22:42:55.425Z,4.30
2023-03-07T22:46:37.216Z,4.20
2023-03-07T22:50:19.040Z,4.20
2023-03-07T22:54:03.456Z,4.20
2023-03-07T22:57:45.196Z,4.20
2023-03-07T23:01:29.098Z,4.30
2023-03-07T23:05:11.240Z,4.30
2023-03-07T23:08:53.625Z,4.20
2023-03-07T23:12:35.385Z,4.20
2023-03-07T23:16:19.790Z,4.20
2023-03-07T23:20:01.562Z,4.20
2023-03-07T23:23:43.590Z,4.20
2023-03-07T23:27:25.388Z,4.20
2023-03-07T23:31:16.585Z,4.20
2023-03-07T23:34:58.514Z,4.30
2023-03-07T23:38:41.026Z,4.30
2023-03-07T23:42:23.147Z,4.30
2023-03-07T23:46:05.052Z,4.30
2023-03-07T23:49:46.847Z,4.30
2023-03-07T23:53:28.637Z,4.30
2023-03-07T23:57:10.397Z,4.30
